sensor_id;sensor_type;location;lat;lon;timestamp;P1;durP1;ratioP1;P2;durP2;ratioP2
53718;SDS011;39616;48.872;9.390;2023-04-15T00:01:01;4.75;;;1.80;;
53718;SDS011;39616;48.872;9.390;2023-04-15T00:03:31;4.85;;;1.90;;
53718;SDS011;39616;48.872;9.390;2023-04-15T00:06:03;2.63;;;1.40;;
53718;SDS011;39616;48.872;9.390;2023-04-15T00:08:33;2.55;;;1.20;;
53718;SDS011;39616;48.872;9.390;2023-04-15T00:11:03;2.63;;;1.35;;
53718;SDS011;39616;48.872;9.390;2023-04-15T00:13:34;4.03;;;1.30;;
53718;SDS011;39616;48.872;9.390;2023-04-15T00:16:05;2.85;;;1.70;;
53718;SDS011;39616;48.872;9.390;2023-04-15T00:18:37;2.35;;;1.70;;
53718;SDS011;39616;48.872;9.390;2023-04-15T00:21:07;9.18;;;2.10;;
53718;SDS011;39616;48.872;9.390;2023-04-15T00:23:38;3.08;;;1.95;;
53718;SDS011;39616;48.872;9.390;2023-04-15T00:26:08;3.78;;;2.83;;
53718;SDS011;39616;48.872;9.390;2023-04-15T00:28:39;5.18;;;2.60;;
53718;SDS011;39616;48.872;9.390;2023-04-15T00:31:09;3.80;;;1.98;;
53718;SDS011;39616;48.872;9.390;2023-04-15T00:33:39;8.65;;;2.42;;
53718;SDS011;39616;48.872;9.390;2023-04-15T00:36:10;4.35;;;2.25;;
53718;SDS011;39616;48.872;9.390;2023-04-15T00:38:40;4.43;;;2.38;;
53718;SDS011;39616;48.872;9.390;2023-04-15T00:41:11;5.78;;;2.35;;
53718;SDS011;39616;48.872;9.390;2023-04-15T00:43:41;4.22;;;1.95;;
53718;SDS011;39616;48.872;9.390;2023-04-15T00:46:12;2.67;;;1.55;;
53718;SDS011;39616;48.872;9.390;2023-04-15T00:48:44;3.85;;;1.92;;
53718;SDS011;39616;48.872;9.390;2023-04-15T00:51:15;3.20;;;1.60;;
53718;SDS011;39616;48.872;9.390;2023-04-15T00:53:46;4.47;;;2.97;;
53718;SDS011;39616;48.872;9.390;2023-04-15T00:56:17;2.22;;;1.42;;
53718;SDS011;39616;48.872;9.390;2023-04-15T00:58:50;3.40;;;1.40;;
53718;SDS011;39616;48.872;9.390;2023-04-15T01:01:21;3.30;;;1.83;;
53718;SDS011;39616;48.872;9.390;2023-04-15T01:03:55;2.58;;;1.73;;
53718;SDS011;39616;48.872;9.390;2023-04-15T01:06:27;6.35;;;1.40;;
53718;SDS011;39616;48.872;9.390;2023-04-15T01:08:58;6.47;;;1.88;;
53718;SDS011;39616;48.872;9.390;2023-04-15T01:11:29;3.30;;;1.85;;
53718;SDS011;39616;48.872;9.390;2023-04-15T01:14:03;2.22;;;1.75;;
53718;SDS011;39616;48.872;9.390;2023-04-15T01:16:33;5.95;;;1.88;;
53718;SDS011;39616;48.872;9.390;2023-04-15T01:19:04;3.00;;;2.03;;
53718;SDS011;39616;48.872;9.390;2023-04-15T01:21:38;5.72;;;2.30;;
53718;SDS011;39616;48.872;9.390;2023-04-15T01:24:09;2.72;;;1.77;;
53718;SDS011;39616;48.872;9.390;2023-04-15T01:26:40;4.28;;;2.08;;
53718;SDS011;39616;48.872;9.390;2023-04-15T01:29:10;3.97;;;2.20;;
53718;SDS011;39616;48.872;9.390;2023-04-15T01:31:48;4.82;;;2.65;;
53718;SDS011;39616;48.872;9.390;2023-04-15T01:34:20;3.42;;;1.90;;
53718;SDS011;39616;48.872;9.390;2023-04-15T01:36:51;4.45;;;1.50;;
53718;SDS011;39616;48.872;9.390;2023-04-15T01:39:21;5.47;;;1.55;;
53718;SDS011;39616;48.872;9.390;2023-04-15T01:41:51;2.53;;;1.70;;
53718;SDS011;39616;48.872;9.390;2023-04-15T01:44:22;2.28;;;1.23;;
53718;SDS011;39616;48.872;9.390;2023-04-15T01:46:52;5.70;;;1.50;;
53718;SDS011;39616;48.872;9.390;2023-04-15T01:49:22;2.00;;;1.42;;
53718;SDS011;39616;48.872;9.390;2023-04-15T01:51:53;2.53;;;1.27;;
53718;SDS011;39616;48.872;9.390;2023-04-15T01:54:23;5.72;;;1.58;;
53718;SDS011;39616;48.872;9.390;2023-04-15T01:56:53;4.07;;;1.40;;
53718;SDS011;39616;48.872;9.390;2023-04-15T01:59:23;4.57;;;1.83;;
53718;SDS011;39616;48.872;9.390;2023-04-15T02:01:54;5.00;;;2.05;;
53718;SDS011;39616;48.872;9.390;2023-04-15T02:04:25;2.63;;;2.35;;
53718;SDS011;39616;48.872;9.390;2023-04-15T02:06:55;3.25;;;2.67;;
53718;SDS011;39616;48.872;9.390;2023-04-15T02:09:25;3.25;;;2.30;;
53718;SDS011;39616;48.872;9.390;2023-04-15T02:11:56;5.20;;;2.47;;
53718;SDS011;39616;48.872;9.390;2023-04-15T02:14:26;3.00;;;2.40;;
53718;SDS011;39616;48.872;9.390;2023-04-15T02:16:56;5.60;;;2.85;;
53718;SDS011;39616;48.872;9.390;2023-04-15T02:19:27;6.47;;;3.03;;
53718;SDS011;39616;48.872;9.390;2023-04-15T02:21:57;3.83;;;2.25;;
53718;SDS011;39616;48.872;9.390;2023-04-15T02:24:29;3.65;;;2.67;;
53718;SDS011;39616;48.872;9.390;2023-04-15T02:27:00;7.55;;;2.45;;
53718;SDS011;39616;48.872;9.390;2023-04-15T02:29:31;7.13;;;3.50;;
53718;SDS011;39616;48.872;9.390;2023-04-15T02:32:01;6.22;;;2.35;;
53718;SDS011;39616;48.872;9.390;2023-04-15T02:34:32;5.20;;;2.53;;
53718;SDS011;39616;48.872;9.390;2023-04-15T02:37:02;3.60;;;2.97;;
53718;SDS011;39616;48.872;9.390;2023-04-15T02:39:33;5.50;;;2.38;;
53718;SDS011;39616;48.872;9.390;2023-04-15T02:42:06;3.35;;;2.65;;
53718;SDS011;39616;48.872;9.390;2023-04-15T02:44:36;7.95;;;3.03;;
53718;SDS011;39616;48.872;9.390;2023-04-15T02:47:07;4.80;;;2.15;;
53718;SDS011;39616;48.872;9.390;2023-04-15T02:49:37;2.03;;;1.77;;
53718;SDS011;39616;48.872;9.390;2023-04-15T02:52:09;3.90;;;2.17;;
53718;SDS011;39616;48.872;9.390;2023-04-15T02:54:39;3.10;;;1.70;;
53718;SDS011;39616;48.872;9.390;2023-04-15T02:57:09;4.22;;;1.88;;
53718;SDS011;39616;48.872;9.390;2023-04-15T02:59:40;1.95;;;1.33;;
53718;SDS011;39616;48.872;9.390;2023-04-15T03:02:11;3.90;;;2.08;;
53718;SDS011;39616;48.872;9.390;2023-04-15T03:04:41;5.60;;;1.70;;
53718;SDS011;39616;48.872;9.390;2023-04-15T03:07:11;2.63;;;1.60;;
53718;SDS011;39616;48.872;9.390;2023-04-15T03:09:41;3.92;;;1.45;;
53718;SDS011;39616;48.872;9.390;2023-04-15T03:12:14;6.00;;;1.70;;
53718;SDS011;39616;48.872;9.390;2023-04-15T03:14:44;3.33;;;1.48;;
53718;SDS011;39616;48.872;9.390;2023-04-15T03:17:15;2.17;;;1.45;;
53718;SDS011;39616;48.872;9.390;2023-04-15T03:19:46;3.75;;;1.67;;
53718;SDS011;39616;48.872;9.390;2023-04-15T03:22:16;1.98;;;1.65;;
53718;SDS011;39616;48.872;9.390;2023-04-15T03:24:46;4.47;;;1.45;;
53718;SDS011;39616;48.872;9.390;2023-04-15T03:27:17;4.57;;;1.58;;
53718;SDS011;39616;48.872;9.390;2023-04-15T03:29:47;4.57;;;1.77;;
53718;SDS011;39616;48.872;9.390;2023-04-15T03:32:17;2.90;;;1.70;;
53718;SDS011;39616;48.872;9.390;2023-04-15T03:34:48;8.57;;;2.22;;
53718;SDS011;39616;48.872;9.390;2023-04-15T03:37:18;2.10;;;1.65;;
53718;SDS011;39616;48.872;9.390;2023-04-15T03:39:48;1.95;;;1.25;;
53718;SDS011;39616;48.872;9.390;2023-04-15T03:42:19;5.68;;;1.73;;
53718;SDS011;39616;48.872;9.390;2023-04-15T03:44:49;1.92;;;1.52;;
53718;SDS011;39616;48.872;9.390;2023-04-15T03:47:19;2.35;;;1.50;;
53718;SDS011;39616;48.872;9.390;2023-04-15T03:49:50;6.55;;;1.23;;
53718;SDS011;39616;48.872;9.390;2023-04-15T03:52:20;2.22;;;1.40;;
53718;SDS011;39616;48.872;9.390;2023-04-15T03:54:50;3.38;;;1.30;;
53718;SDS011;39616;48.872;9.390;2023-04-15T03:57:21;6.38;;;1.60;;
53718;SDS011;39616;48.872;9.390;2023-04-15T03:59:51;4.43;;;1.88;;
53718;SDS011;39616;48.872;9.390;2023-04-15T04:02:22;2.53;;;1.77;;
53718;SDS011;39616;48.872;9.390;2023-04-15T04:04:52;2.78;;;1.55;;
53718;SDS011;39616;48.872;9.390;2023-04-15T04:07:23;3.65;;;1.58;;
53718;SDS011;39616;48.872;9.390;2023-04-15T04:09:53;6.05;;;1.83;;
53718;SDS011;39616;48.872;9.390;2023-04-15T04:12:24;4.45;;;1.80;;
53718;SDS011;39616;48.872;9.390;2023-04-15T04:14:54;1.55;;;1.42;;
53718;SDS011;39616;48.872;9.390;2023-04-15T04:17:25;4.03;;;1.60;;
53718;SDS011;39616;48.872;9.390;2023-04-15T04:19:55;2.13;;;1.80;;
53718;SDS011;39616;48.872;9.390;2023-04-15T04:22:25;3.47;;;2.00;;
53718;SDS011;39616;48.872;9.390;2023-04-15T04:24:56;3.20;;;1.60;;
53718;SDS011;39616;48.872;9.390;2023-04-15T04:27:28;3.90;;;1.33;;
53718;SDS011;39616;48.872;9.390;2023-04-15T04:29:58;3.55;;;1.95;;
53718;SDS011;39616;48.872;9.390;2023-04-15T04:32:29;3.92;;;1.75;;
53718;SDS011;39616;48.872;9.390;2023-04-15T04:34:59;4.55;;;1.50;;
53718;SDS011;39616;48.872;9.390;2023-04-15T04:37:29;3.35;;;1.30;;
53718;SDS011;39616;48.872;9.390;2023-04-15T04:40:00;3.25;;;1.40;;
53718;SDS011;39616;48.872;9.390;2023-04-15T04:42:30;3.40;;;1.25;;
53718;SDS011;39616;48.872;9.390;2023-04-15T04:45:00;1.65;;;1.40;;
53718;SDS011;39616;48.872;9.390;2023-04-15T04:47:31;3.80;;;1.50;;
53718;SDS011;39616;48.872;9.390;2023-04-15T04:50:01;2.75;;;1.98;;
53718;SDS011;39616;48.872;9.390;2023-04-15T04:52:32;5.13;;;1.80;;
53718;SDS011;39616;48.872;9.390;2023-04-15T04:55:02;3.83;;;1.58;;
53718;SDS011;39616;48.872;9.390;2023-04-15T04:57:33;3.13;;;1.80;;
53718;SDS011;39616;48.872;9.390;2023-04-15T05:00:05;2.35;;;1.85;;
53718;SDS011;39616;48.872;9.390;2023-04-15T05:02:37;2.20;;;1.60;;
53718;SDS011;39616;48.872;9.390;2023-04-15T05:05:07;4.60;;;1.60;;
53718;SDS011;39616;48.872;9.390;2023-04-15T05:07:41;3.83;;;2.58;;
53718;SDS011;39616;48.872;9.390;2023-04-15T05:10:11;3.70;;;2.60;;
53718;SDS011;39616;48.872;9.390;2023-04-15T05:12:43;6.20;;;2.42;;
53718;SDS011;39616;48.872;9.390;2023-04-15T05:15:14;8.82;;;2.25;;
53718;SDS011;39616;48.872;9.390;2023-04-15T05:17:44;4.57;;;2.47;;
53718;SDS011;39616;48.872;9.390;2023-04-15T05:20:14;5.55;;;1.83;;
53718;SDS011;39616;48.872;9.390;2023-04-15T05:22:45;4.22;;;2.58;;
53718;SDS011;39616;48.872;9.390;2023-04-15T05:25:15;3.67;;;1.60;;
53718;SDS011;39616;48.872;9.390;2023-04-15T05:27:45;2.17;;;1.48;;
53718;SDS011;39616;48.872;9.390;2023-04-15T05:30:16;5.72;;;1.92;;
53718;SDS011;39616;48.872;9.390;2023-04-15T05:32:46;3.97;;;2.00;;
53718;SDS011;39616;48.872;9.390;2023-04-15T05:35:17;2.28;;;1.80;;
53718;SDS011;39616;48.872;9.390;2023-04-15T05:37:47;3.15;;;1.77;;
53718;SDS011;39616;48.872;9.390;2023-04-15T05:40:17;2.53;;;1.48;;
53718;SDS011;39616;48.872;9.390;2023-04-15T05:42:47;6.63;;;1.88;;
53718;SDS011;39616;48.872;9.390;2023-04-15T05:45:18;2.67;;;2.22;;
53718;SDS011;39616;48.872;9.390;2023-04-15T05:47:49;4.53;;;2.42;;
53718;SDS011;39616;48.872;9.390;2023-04-15T05:50:19;6.45;;;2.30;;
53718;SDS011;39616;48.872;9.390;2023-04-15T05:52:50;4.45;;;2.30;;
53718;SDS011;39616;48.872;9.390;2023-04-15T05:55:20;4.80;;;2.50;;
53718;SDS011;39616;48.872;9.390;2023-04-15T05:57:51;5.78;;;2.90;;
53718;SDS011;39616;48.872;9.390;2023-04-15T06:00:21;5.40;;;2.83;;
53718;SDS011;39616;48.872;9.390;2023-04-15T06:02:51;5.95;;;2.88;;
53718;SDS011;39616;48.872;9.390;2023-04-15T06:05:22;11.77;;;3.47;;
53718;SDS011;39616;48.872;9.390;2023-04-15T06:07:53;5.90;;;3.78;;
53718;SDS011;39616;48.872;9.390;2023-04-15T06:10:23;9.27;;;4.03;;
53718;SDS011;39616;48.872;9.390;2023-04-15T06:12:53;6.13;;;3.13;;
53718;SDS011;39616;48.872;9.390;2023-04-15T06:15:24;5.93;;;2.97;;
53718;SDS011;39616;48.872;9.390;2023-04-15T06:17:54;8.85;;;3.42;;
53718;SDS011;39616;48.872;9.390;2023-04-15T06:20:25;7.30;;;3.10;;
53718;SDS011;39616;48.872;9.390;2023-04-15T06:22:56;4.15;;;2.70;;
53718;SDS011;39616;48.872;9.390;2023-04-15T06:25:26;4.70;;;2.40;;
53718;SDS011;39616;48.872;9.390;2023-04-15T06:27:56;5.72;;;2.90;;
53718;SDS011;39616;48.872;9.390;2023-04-15T06:30:27;4.47;;;2.90;;
53718;SDS011;39616;48.872;9.390;2023-04-15T06:32:57;7.22;;;3.20;;
53718;SDS011;39616;48.872;9.390;2023-04-15T06:35:27;5.03;;;2.78;;
53718;SDS011;39616;48.872;9.390;2023-04-15T06:37:58;3.30;;;2.28;;
53718;SDS011;39616;48.872;9.390;2023-04-15T06:40:28;4.57;;;2.30;;
53718;SDS011;39616;48.872;9.390;2023-04-15T06:42:58;6.70;;;2.70;;
53718;SDS011;39616;48.872;9.390;2023-04-15T06:45:29;5.07;;;3.08;;
53718;SDS011;39616;48.872;9.390;2023-04-15T06:48:00;3.95;;;2.30;;
53718;SDS011;39616;48.872;9.390;2023-04-15T06:50:30;12.00;;;2.60;;
53718;SDS011;39616;48.872;9.390;2023-04-15T06:53:01;7.15;;;2.20;;
53718;SDS011;39616;48.872;9.390;2023-04-15T06:55:32;3.35;;;2.30;;
53718;SDS011;39616;48.872;9.390;2023-04-15T06:58:03;4.65;;;2.25;;
53718;SDS011;39616;48.872;9.390;2023-04-15T07:00:33;7.70;;;2.75;;
53718;SDS011;39616;48.872;9.390;2023-04-15T07:03:04;4.47;;;2.30;;
53718;SDS011;39616;48.872;9.390;2023-04-15T07:05:34;5.10;;;2.20;;
53718;SDS011;39616;48.872;9.390;2023-04-15T07:08:04;5.97;;;2.63;;
53718;SDS011;39616;48.872;9.390;2023-04-15T07:10:35;6.05;;;2.38;;
53718;SDS011;39616;48.872;9.390;2023-04-15T07:13:06;6.40;;;3.20;;
53718;SDS011;39616;48.872;9.390;2023-04-15T07:15:37;7.40;;;3.72;;
53718;SDS011;39616;48.872;9.390;2023-04-15T07:18:08;6.50;;;3.45;;
53718;SDS011;39616;48.872;9.390;2023-04-15T07:20:38;8.32;;;3.63;;
53718;SDS011;39616;48.872;9.390;2023-04-15T07:23:09;5.18;;;3.22;;
53718;SDS011;39616;48.872;9.390;2023-04-15T07:25:39;7.82;;;2.80;;
53718;SDS011;39616;48.872;9.390;2023-04-15T07:28:10;7.70;;;3.60;;
53718;SDS011;39616;48.872;9.390;2023-04-15T07:30:40;6.30;;;2.60;;
53718;SDS011;39616;48.872;9.390;2023-04-15T07:33:10;8.60;;;3.03;;
53718;SDS011;39616;48.872;9.390;2023-04-15T07:35:41;4.30;;;2.63;;
53718;SDS011;39616;48.872;9.390;2023-04-15T07:38:11;6.20;;;2.70;;
53718;SDS011;39616;48.872;9.390;2023-04-15T07:40:42;5.45;;;2.70;;
53718;SDS011;39616;48.872;9.390;2023-04-15T07:43:13;4.95;;;2.88;;
53718;SDS011;39616;48.872;9.390;2023-04-15T07:45:43;7.30;;;3.35;;
53718;SDS011;39616;48.872;9.390;2023-04-15T07:48:13;6.68;;;2.30;;
53718;SDS011;39616;48.872;9.390;2023-04-15T07:50:44;5.82;;;2.47;;
53718;SDS011;39616;48.872;9.390;2023-04-15T07:53:14;8.30;;;2.33;;
53718;SDS011;39616;48.872;9.390;2023-04-15T07:55:44;3.85;;;1.92;;
53718;SDS011;39616;48.872;9.390;2023-04-15T07:58:15;5.55;;;2.35;;
53718;SDS011;39616;48.872;9.390;2023-04-15T08:00:46;5.25;;;1.92;;
53718;SDS011;39616;48.872;9.390;2023-04-15T08:03:16;6.50;;;2.75;;
53718;SDS011;39616;48.872;9.390;2023-04-15T08:05:47;3.63;;;2.17;;
53718;SDS011;39616;48.872;9.390;2023-04-15T08:08:17;5.75;;;2.05;;
53718;SDS011;39616;48.872;9.390;2023-04-15T08:10:48;4.15;;;2.17;;
53718;SDS011;39616;48.872;9.390;2023-04-15T08:13:19;5.35;;;2.17;;
53718;SDS011;39616;48.872;9.390;2023-04-15T08:15:52;7.20;;;1.75;;
53718;SDS011;39616;48.872;9.390;2023-04-15T08:18:42;6.18;;;2.05;;
53718;SDS011;39616;48.872;9.390;2023-04-15T08:21:13;5.47;;;1.92;;
53718;SDS011;39616;48.872;9.390;2023-04-15T08:23:44;7.78;;;1.85;;
53718;SDS011;39616;48.872;9.390;2023-04-15T08:26:16;5.43;;;1.73;;
53718;SDS011;39616;48.872;9.390;2023-04-15T08:28:47;6.53;;;1.65;;
53718;SDS011;39616;48.872;9.390;2023-04-15T08:31:18;9.77;;;1.90;;
53718;SDS011;39616;48.872;9.390;2023-04-15T08:33:48;3.13;;;1.08;;
53718;SDS011;39616;48.872;9.390;2023-04-15T08:36:21;3.78;;;1.88;;
53718;SDS011;39616;48.872;9.390;2023-04-15T08:38:51;5.72;;;2.00;;
53718;SDS011;39616;48.872;9.390;2023-04-15T08:41:22;4.88;;;1.45;;
53718;SDS011;39616;48.872;9.390;2023-04-15T08:43:58;4.97;;;2.00;;
53718;SDS011;39616;48.872;9.390;2023-04-15T08:46:32;5.00;;;1.63;;
53718;SDS011;39616;48.872;9.390;2023-04-15T08:49:03;5.60;;;1.63;;
53718;SDS011;39616;48.872;9.390;2023-04-15T08:51:34;4.38;;;2.08;;
53718;SDS011;39616;48.872;9.390;2023-04-15T08:54:05;17.92;;;1.90;;
53718;SDS011;39616;48.872;9.390;2023-04-15T08:56:37;4.25;;;2.22;;
53718;SDS011;39616;48.872;9.390;2023-04-15T08:59:08;4.80;;;2.00;;
53718;SDS011;39616;48.872;9.390;2023-04-15T09:01:40;5.82;;;2.35;;
53718;SDS011;39616;48.872;9.390;2023-04-15T09:04:10;8.25;;;2.35;;
53718;SDS011;39616;48.872;9.390;2023-04-15T09:06:41;6.57;;;2.70;;
53718;SDS011;39616;48.872;9.390;2023-04-15T09:09:11;6.22;;;1.95;;
53718;SDS011;39616;48.872;9.390;2023-04-15T09:11:43;3.80;;;2.05;;
53718;SDS011;39616;48.872;9.390;2023-04-15T09:14:13;3.78;;;1.65;;
53718;SDS011;39616;48.872;9.390;2023-04-15T09:16:59;9.30;;;2.15;;
53718;SDS011;39616;48.872;9.390;2023-04-15T09:19:30;5.03;;;1.70;;
53718;SDS011;39616;48.872;9.390;2023-04-15T09:22:03;4.72;;;2.08;;
53718;SDS011;39616;48.872;9.390;2023-04-15T09:24:37;5.85;;;1.67;;
53718;SDS011;39616;48.872;9.390;2023-04-15T09:27:09;6.93;;;1.95;;
53718;SDS011;39616;48.872;9.390;2023-04-15T09:29:40;5.45;;;2.10;;
53718;SDS011;39616;48.872;9.390;2023-04-15T09:32:12;3.50;;;1.90;;
53718;SDS011;39616;48.872;9.390;2023-04-15T09:34:43;4.40;;;2.03;;
53718;SDS011;39616;48.872;9.390;2023-04-15T09:37:13;8.48;;;2.22;;
53718;SDS011;39616;48.872;9.390;2023-04-15T09:39:48;4.40;;;1.77;;
53718;SDS011;39616;48.872;9.390;2023-04-15T09:42:20;4.38;;;2.58;;
53718;SDS011;39616;48.872;9.390;2023-04-15T09:44:54;4.03;;;1.70;;
53718;SDS011;39616;48.872;9.390;2023-04-15T09:47:26;4.90;;;2.38;;
53718;SDS011;39616;48.872;9.390;2023-04-15T09:49:57;3.38;;;1.70;;
53718;SDS011;39616;48.872;9.390;2023-04-15T09:52:29;2.08;;;1.73;;
53718;SDS011;39616;48.872;9.390;2023-04-15T09:54:59;2.45;;;1.23;;
53718;SDS011;39616;48.872;9.390;2023-04-15T09:57:36;4.40;;;1.00;;
53718;SDS011;39616;48.872;9.390;2023-04-15T10:00:07;7.72;;;1.23;;
53718;SDS011;39616;48.872;9.390;2023-04-15T10:02:40;3.65;;;1.60;;
53718;SDS011;39616;48.872;9.390;2023-04-15T10:05:13;6.55;;;1.92;;
53718;SDS011;39616;48.872;9.390;2023-04-15T10:07:44;3.45;;;1.42;;
53718;SDS011;39616;48.872;9.390;2023-04-15T10:10:15;4.18;;;1.52;;
53718;SDS011;39616;48.872;9.390;2023-04-15T10:12:46;3.90;;;1.90;;
53718;SDS011;39616;48.872;9.390;2023-04-15T10:15:17;2.00;;;1.45;;
53718;SDS011;39616;48.872;9.390;2023-04-15T10:17:48;4.30;;;1.33;;
53718;SDS011;39616;48.872;9.390;2023-04-15T10:20:20;3.83;;;1.67;;
53718;SDS011;39616;48.872;9.390;2023-04-15T10:22:51;5.15;;;2.00;;
53718;SDS011;39616;48.872;9.390;2023-04-15T10:25:22;3.72;;;1.70;;
53718;SDS011;39616;48.872;9.390;2023-04-15T10:27:55;4.60;;;1.27;;
53718;SDS011;39616;48.872;9.390;2023-04-15T10:30:26;3.35;;;1.70;;
53718;SDS011;39616;48.872;9.390;2023-04-15T10:32:58;2.72;;;1.95;;
53718;SDS011;39616;48.872;9.390;2023-04-15T10:35:31;4.90;;;1.80;;
53718;SDS011;39616;48.872;9.390;2023-04-15T10:38:22;6.57;;;1.70;;
53718;SDS011;39616;48.872;9.390;2023-04-15T10:49:11;2.83;;;1.20;;
53718;SDS011;39616;48.872;9.390;2023-04-15T10:51:52;3.08;;;1.80;;
53718;SDS011;39616;48.872;9.390;2023-04-15T10:59:36;7.93;;;2.22;;
53718;SDS011;39616;48.872;9.390;2023-04-15T11:02:07;4.93;;;1.50;;
53718;SDS011;39616;48.872;9.390;2023-04-15T11:04:56;5.25;;;2.00;;
53718;SDS011;39616;48.872;9.390;2023-04-15T11:12:49;2.67;;;1.42;;
53718;SDS011;39616;48.872;9.390;2023-04-15T11:23:17;3.65;;;1.60;;
53718;SDS011;39616;48.872;9.390;2023-04-15T11:25:49;2.38;;;1.90;;
53718;SDS011;39616;48.872;9.390;2023-04-15T11:28:19;4.47;;;1.73;;
53718;SDS011;39616;48.872;9.390;2023-04-15T11:30:49;2.55;;;1.70;;
53718;SDS011;39616;48.872;9.390;2023-04-15T11:33:20;3.20;;;1.40;;
53718;SDS011;39616;48.872;9.390;2023-04-15T11:35:51;3.72;;;1.50;;
53718;SDS011;39616;48.872;9.390;2023-04-15T11:38:25;7.22;;;1.77;;
53718;SDS011;39616;48.872;9.390;2023-04-15T11:40:55;3.80;;;1.50;;
53718;SDS011;39616;48.872;9.390;2023-04-15T11:43:26;4.30;;;1.73;;
53718;SDS011;39616;48.872;9.390;2023-04-15T11:45:57;2.13;;;1.55;;
53718;SDS011;39616;48.872;9.390;2023-04-15T11:48:32;8.15;;;1.90;;
53718;SDS011;39616;48.872;9.390;2023-04-15T11:51:04;2.13;;;1.70;;
53718;SDS011;39616;48.872;9.390;2023-04-15T11:53:48;5.68;;;1.65;;
53718;SDS011;39616;48.872;9.390;2023-04-15T11:56:23;4.70;;;2.38;;
53718;SDS011;39616;48.872;9.390;2023-04-15T11:58:58;2.90;;;1.80;;
53718;SDS011;39616;48.872;9.390;2023-04-15T12:04:14;3.90;;;1.95;;
53718;SDS011;39616;48.872;9.390;2023-04-15T12:06:51;5.93;;;1.83;;
53718;SDS011;39616;48.872;9.390;2023-04-15T12:09:21;4.90;;;1.67;;
53718;SDS011;39616;48.872;9.390;2023-04-15T12:11:51;3.10;;;1.88;;
53718;SDS011;39616;48.872;9.390;2023-04-15T12:14:27;4.50;;;1.67;;
53718;SDS011;39616;48.872;9.390;2023-04-15T12:17:03;2.10;;;1.60;;
53718;SDS011;39616;48.872;9.390;2023-04-15T12:19:37;3.15;;;1.75;;
53718;SDS011;39616;48.872;9.390;2023-04-15T12:22:09;4.28;;;2.00;;
53718;SDS011;39616;48.872;9.390;2023-04-15T12:24:40;3.22;;;1.25;;
53718;SDS011;39616;48.872;9.390;2023-04-15T12:27:14;2.85;;;1.13;;
53718;SDS011;39616;48.872;9.390;2023-04-15T12:29:45;4.13;;;1.60;;
53718;SDS011;39616;48.872;9.390;2023-04-15T12:32:16;4.13;;;1.10;;
53718;SDS011;39616;48.872;9.390;2023-04-15T12:34:50;5.78;;;1.17;;
53718;SDS011;39616;48.872;9.390;2023-04-15T12:37:25;8.60;;;1.23;;
53718;SDS011;39616;48.872;9.390;2023-04-15T12:39:56;2.53;;;1.27;;
53718;SDS011;39616;48.872;9.390;2023-04-15T12:42:26;2.13;;;0.90;;
53718;SDS011;39616;48.872;9.390;2023-04-15T12:44:57;4.47;;;1.92;;
53718;SDS011;39616;48.872;9.390;2023-04-15T12:47:27;1.00;;;1.00;;
53718;SDS011;39616;48.872;9.390;2023-04-15T12:49:57;1.30;;;1.00;;
53718;SDS011;39616;48.872;9.390;2023-04-15T12:52:28;3.85;;;1.40;;
53718;SDS011;39616;48.872;9.390;2023-04-15T12:54:58;2.28;;;1.63;;
53718;SDS011;39616;48.872;9.390;2023-04-15T12:57:29;1.88;;;0.95;;
53718;SDS011;39616;48.872;9.390;2023-04-15T12:59:59;4.53;;;1.38;;
53718;SDS011;39616;48.872;9.390;2023-04-15T13:02:30;7.18;;;1.65;;
53718;SDS011;39616;48.872;9.390;2023-04-15T13:05:00;3.60;;;0.70;;
53718;SDS011;39616;48.872;9.390;2023-04-15T13:07:30;2.13;;;0.80;;
53718;SDS011;39616;48.872;9.390;2023-04-15T13:10:02;1.02;;;0.60;;
53718;SDS011;39616;48.872;9.390;2023-04-15T13:12:32;0.90;;;0.60;;
53718;SDS011;39616;48.872;9.390;2023-04-15T13:15:06;1.83;;;0.60;;
53718;SDS011;39616;48.872;9.390;2023-04-15T13:17:38;0.55;;;0.50;;
53718;SDS011;39616;48.872;9.390;2023-04-15T13:20:08;0.88;;;0.50;;
53718;SDS011;39616;48.872;9.390;2023-04-15T13:22:39;2.08;;;0.50;;
53718;SDS011;39616;48.872;9.390;2023-04-15T13:25:10;1.85;;;0.60;;
53718;SDS011;39616;48.872;9.390;2023-04-15T13:27:40;0.93;;;0.60;;
53718;SDS011;39616;48.872;9.390;2023-04-15T13:30:11;0.80;;;0.50;;
53718;SDS011;39616;48.872;9.390;2023-04-15T13:32:42;7.68;;;0.60;;
53718;SDS011;39616;48.872;9.390;2023-04-15T13:35:12;1.20;;;0.60;;
53718;SDS011;39616;48.872;9.390;2023-04-15T13:37:43;0.80;;;0.80;;
53718;SDS011;39616;48.872;9.390;2023-04-15T13:40:13;0.40;;;0.40;;
53718;SDS011;39616;48.872;9.390;2023-04-15T13:42:44;1.10;;;0.30;;
53718;SDS011;39616;48.872;9.390;2023-04-15T13:45:14;0.40;;;0.40;;
53718;SDS011;39616;48.872;9.390;2023-04-15T13:47:45;0.35;;;0.35;;
53718;SDS011;39616;48.872;9.390;2023-04-15T13:50:15;2.08;;;0.40;;
53718;SDS011;39616;48.872;9.390;2023-04-15T13:52:46;1.48;;;0.40;;
53718;SDS011;39616;48.872;9.390;2023-04-15T13:55:16;0.75;;;0.30;;
53718;SDS011;39616;48.872;9.390;2023-04-15T13:57:46;0.40;;;0.40;;
53718;SDS011;39616;48.872;9.390;2023-04-15T14:00:17;1.10;;;0.40;;
53718;SDS011;39616;48.872;9.390;2023-04-15T14:02:47;0.85;;;0.40;;
53718;SDS011;39616;48.872;9.390;2023-04-15T14:05:18;5.03;;;0.50;;
53718;SDS011;39616;48.872;9.390;2023-04-15T14:07:48;3.33;;;0.40;;
53718;SDS011;39616;48.872;9.390;2023-04-15T14:10:18;1.60;;;0.60;;
53718;SDS011;39616;48.872;9.390;2023-04-15T14:12:49;3.45;;;0.40;;
53718;SDS011;39616;48.872;9.390;2023-04-15T14:15:19;0.93;;;0.50;;
53718;SDS011;39616;48.872;9.390;2023-04-15T14:17:50;0.75;;;0.50;;
53718;SDS011;39616;48.872;9.390;2023-04-15T14:20:20;1.70;;;0.70;;
53718;SDS011;39616;48.872;9.390;2023-04-15T14:22:50;1.33;;;0.90;;
53718;SDS011;39616;48.872;9.390;2023-04-15T14:25:21;1.00;;;0.60;;
53718;SDS011;39616;48.872;9.390;2023-04-15T14:27:51;1.30;;;1.25;;
53718;SDS011;39616;48.872;9.390;2023-04-15T14:30:22;6.32;;;1.73;;
53718;SDS011;39616;48.872;9.390;2023-04-15T14:32:52;0.60;;;0.60;;
53718;SDS011;39616;48.872;9.390;2023-04-15T14:35:22;1.73;;;0.52;;
53718;SDS011;39616;48.872;9.390;2023-04-15T14:37:55;1.38;;;0.55;;
53718;SDS011;39616;48.872;9.390;2023-04-15T14:40:25;1.55;;;0.90;;
53718;SDS011;39616;48.872;9.390;2023-04-15T14:42:56;3.75;;;0.80;;
53718;SDS011;39616;48.872;9.390;2023-04-15T14:45:26;0.60;;;0.60;;
53718;SDS011;39616;48.872;9.390;2023-04-15T14:47:57;0.85;;;0.57;;
53718;SDS011;39616;48.872;9.390;2023-04-15T14:50:28;2.80;;;0.80;;
53718;SDS011;39616;48.872;9.390;2023-04-15T14:52:58;2.55;;;0.75;;
53718;SDS011;39616;48.872;9.390;2023-04-15T14:55:29;8.18;;;7.50;;
53718;SDS011;39616;48.872;9.390;2023-04-15T14:57:59;2.45;;;1.88;;
53718;SDS011;39616;48.872;9.390;2023-04-15T15:00:31;3.15;;;0.70;;
53718;SDS011;39616;48.872;9.390;2023-04-15T15:03:01;1.67;;;1.05;;
53718;SDS011;39616;48.872;9.390;2023-04-15T15:05:32;0.95;;;0.88;;
53718;SDS011;39616;48.872;9.390;2023-04-15T15:08:04;2.22;;;1.10;;
53718;SDS011;39616;48.872;9.390;2023-04-15T15:10:36;1.55;;;0.63;;
53718;SDS011;39616;48.872;9.390;2023-04-15T15:13:08;0.80;;;0.80;;
53718;SDS011;39616;48.872;9.390;2023-04-15T15:15:39;1.67;;;0.80;;
53718;SDS011;39616;48.872;9.390;2023-04-15T15:18:10;3.88;;;0.80;;
53718;SDS011;39616;48.872;9.390;2023-04-15T15:20:40;0.60;;;0.60;;
53718;SDS011;39616;48.872;9.390;2023-04-15T15:23:10;0.80;;;0.70;;
53718;SDS011;39616;48.872;9.390;2023-04-15T15:25:41;2.80;;;1.00;;
53718;SDS011;39616;48.872;9.390;2023-04-15T15:28:11;1.15;;;0.80;;
53718;SDS011;39616;48.872;9.390;2023-04-15T15:30:41;1.08;;;0.65;;
53718;SDS011;39616;48.872;9.390;2023-04-15T15:33:12;1.13;;;0.70;;
53718;SDS011;39616;48.872;9.390;2023-04-15T15:35:42;5.72;;;0.80;;
53718;SDS011;39616;48.872;9.390;2023-04-15T15:38:13;1.60;;;0.65;;
53718;SDS011;39616;48.872;9.390;2023-04-15T15:40:43;1.27;;;0.82;;